Station History

Weather Underground - logo

Station Historical Data
Daily Summary for November 29, 2017 Units:  English    Metric   Both
« Previous Day
Next Day »
Daily Weekly Monthly Yearly Custom
  High: Low: Average:
Temperature: 62.0 °F 40.3 °F 49.3 °F
Dew Point: 49.1 °F 38.7 °F 44.1 °F
Humidity: 95 % 60 % 84 %
Wind Speed: 4.6 mph 0.0 mph 0.5 mph
Wind Gust: 4.6 mph - -
Wind:- - SSE
Pressure: 30.20 in 30.10 in -
Precipitation: 0.01 in    
Historical Graphs
 
 
Tabular Data for November 29, 2017
Time Temperature Dew Point Pressure Wind Wind Speed Wind Gust Humidity Rainfall Rate (Hourly)
00:02 45.0 °F 42.8 °F 30.15 in Calm     92 % 0.00 in
00:07 44.9 °F 42.7 °F 30.15 in Calm     92 % 0.00 in
00:12 44.9 °F 42.7 °F 30.15 in Calm     92 % 0.00 in
00:17 44.9 °F 42.7 °F 30.14 in SE 1.2 mph   92 % 0.00 in
00:22 44.9 °F 42.7 °F 30.14 in Calm     92 % 0.00 in
00:27 45.1 °F 43.2 °F 30.14 in Calm     93 % 0.00 in
00:32 45.1 °F 42.9 °F 30.15 in Calm     92 % 0.00 in
00:37 45.0 °F 42.8 °F 30.15 in Calm     92 % 0.00 in
00:47 44.6 °F 42.4 °F 30.14 in Calm     92 % 0.00 in
00:52 44.4 °F 42.2 °F 30.15 in Calm     92 % 0.00 in
01:02 44.4 °F 42.5 °F 30.15 in Calm     93 % 0.00 in
01:23 43.8 °F 41.9 °F 30.14 in Calm     93 % 0.00 in
01:28 43.9 °F 42.0 °F 30.15 in Calm     93 % 0.00 in
01:38 43.9 °F 42.0 °F 30.14 in Calm     93 % 0.00 in
01:43 43.9 °F 42.0 °F 30.14 in Calm     93 % 0.00 in
01:48 44.0 °F 42.4 °F 30.14 in Calm     94 % 0.00 in
01:58 44.2 °F 42.3 °F 30.14 in Calm     93 % 0.00 in
02:03 44.0 °F 42.1 °F 30.14 in Calm     93 % 0.00 in
02:08 43.7 °F 41.8 °F 30.14 in Calm     93 % 0.00 in
02:13 43.4 °F 41.2 °F 30.14 in Calm     92 % 0.00 in
02:23 42.8 °F 40.6 °F 30.15 in Calm     92 % 0.00 in
02:28 42.6 °F 40.7 °F 30.15 in Calm     93 % 0.00 in
02:33 42.5 °F 40.6 °F 30.15 in Calm     93 % 0.00 in
02:38 42.3 °F 40.4 °F 30.15 in Calm     93 % 0.00 in
02:43 42.3 °F 40.4 °F 30.15 in Calm     93 % 0.00 in
02:48 42.2 °F 40.3 °F 30.15 in Calm     93 % 0.00 in
02:53 42.0 °F 40.1 °F 30.15 in Calm     93 % 0.00 in
02:58 41.9 °F 40.0 °F 30.15 in Calm     93 % 0.00 in
03:03 41.7 °F 39.8 °F 30.16 in Calm     93 % 0.00 in
03:08 41.6 °F 39.7 °F 30.16 in Calm     93 % 0.00 in
03:23 41.1 °F 39.2 °F 30.16 in Calm     93 % 0.00 in
03:28 41.0 °F 39.4 °F 30.16 in Calm     94 % 0.01 in
03:33 41.0 °F 39.4 °F 30.16 in Calm     94 % 0.01 in
03:38 41.1 °F 39.5 °F 30.15 in Calm     94 % 0.01 in
03:43 41.5 °F 39.9 °F 30.15 in SE 1.2 mph   94 % 0.01 in
03:48 41.7 °F 40.4 °F 30.15 in Calm     95 % 0.01 in
03:53 41.8 °F 40.2 °F 30.15 in Calm     94 % 0.01 in
03:58 41.8 °F 40.2 °F 30.15 in Calm     94 % 0.01 in
04:03 42.0 °F 40.4 °F 30.15 in Calm     94 % 0.01 in
04:09 42.1 °F 40.5 °F 30.15 in Calm     94 % 0.01 in
04:29 42.2 °F 40.6 °F 30.16 in Calm     94 % 0.00 in
04:39 42.0 °F 40.4 °F 30.16 in Calm     94 % 0.00 in
04:44 41.6 °F 39.7 °F 30.16 in Calm     93 % 0.00 in
04:49 41.5 °F 39.9 °F 30.16 in Calm     94 % 0.00 in
04:54 41.5 °F 39.9 °F 30.16 in Calm     94 % 0.00 in
04:59 41.5 °F 39.9 °F 30.16 in Calm     94 % 0.00 in
05:04 41.5 °F 39.9 °F 30.17 in Calm     94 % 0.00 in
05:09 41.5 °F 39.9 °F 30.17 in Calm     94 % 0.00 in
05:14 41.5 °F 39.9 °F 30.17 in SE 1.2 mph   94 % 0.00 in
05:24 41.1 °F 39.5 °F 30.17 in Calm     94 % 0.00 in
05:34 40.8 °F 39.2 °F 30.17 in Calm     94 % 0.00 in
05:39 40.6 °F 39.0 °F 30.17 in Calm     94 % 0.00 in
05:44 40.5 °F 38.9 °F 30.18 in Calm     94 % 0.00 in
05:54 40.3 °F 38.7 °F 30.18 in Calm     94 % 0.00 in
05:59 40.3 °F 38.7 °F 30.18 in Calm     94 % 0.00 in
06:14 40.7 °F 39.4 °F 30.18 in Calm     95 % 0.00 in
06:19 40.8 °F 39.5 °F 30.18 in Calm     95 % 0.00 in
06:24 40.9 °F 39.6 °F 30.18 in SE 1.2 mph   95 % 0.00 in
06:34 40.9 °F 39.6 °F 30.18 in Calm     95 % 0.00 in
06:39 40.9 °F 39.3 °F 30.18 in Calm     94 % 0.00 in
06:49 40.9 °F 39.6 °F 30.19 in Calm     95 % 0.00 in
06:54 40.8 °F 39.2 °F 30.18 in Calm     94 % 0.00 in
07:01 40.7 °F 39.1 °F 30.18 in Calm     94 % 0.00 in
07:06 40.8 °F 39.5 °F 30.18 in Calm     95 % 0.00 in
07:11 40.8 °F 39.5 °F 30.19 in Calm     95 % 0.00 in
07:16 40.7 °F 39.4 °F 30.19 in Calm     95 % 0.00 in
07:21 40.7 °F 39.4 °F 30.19 in Calm     95 % 0.00 in
07:26 40.9 °F 39.6 °F 30.19 in Calm     95 % 0.00 in
07:31 41.1 °F 39.8 °F 30.19 in Calm     95 % 0.00 in
07:41 41.5 °F 40.2 °F 30.19 in Calm     95 % 0.00 in
07:46 41.8 °F 40.5 °F 30.20 in Calm     95 % 0.00 in
07:51 42.3 °F 41.0 °F 30.20 in Calm     95 % 0.00 in
07:56 42.7 °F 41.4 °F 30.20 in Calm     95 % 0.00 in
08:06 43.7 °F 42.4 °F 30.20 in Calm     95 % 0.00 in
08:11 44.4 °F 43.1 °F 30.20 in ESE 1.2 mph   95 % 0.00 in
08:16 45.1 °F 43.5 °F 30.20 in Calm     94 % 0.00 in
08:27 46.8 °F 44.9 °F 30.20 in Calm   0.6 mph 93 % 0.00 in
08:37 48.4 °F 45.6 °F 30.20 in Calm     90 % 0.00 in
08:42 48.9 °F 45.5 °F 30.20 in SE 2.0 mph 2.0 mph 88 % 0.00 in
08:47 49.1 °F 45.7 °F 30.20 in East 3.5 mph   88 % 0.00 in
08:52 49.3 °F 45.6 °F 30.20 in East 4.6 mph 4.6 mph 87 % 0.00 in
09:02 50.1 °F 45.8 °F 30.20 in South 2.3 mph 2.3 mph 85 % 0.00 in
09:07 50.3 °F 45.6 °F 30.20 in SE 2.3 mph 2.3 mph 84 % 0.00 in
09:22 51.4 °F 46.4 °F 30.20 in South 2.3 mph 2.3 mph 83 % 0.00 in
09:27 51.9 °F 46.9 °F 30.20 in SSE 1.2 mph   83 % 0.00 in
09:32 52.3 °F 47.0 °F 30.20 in SE 1.2 mph 1.2 mph 82 % 0.00 in
09:37 52.6 °F 46.9 °F 30.20 in ESE 1.2 mph 1.2 mph 81 % 0.00 in
09:47 53.6 °F 47.6 °F 30.20 in Calm     80 % 0.00 in
09:52 54.3 °F 47.6 °F 30.20 in NE 1.2 mph 1.2 mph 78 % 0.00 in
09:57 54.6 °F 47.5 °F 30.20 in ESE 1.2 mph   77 % 0.00 in
10:04 54.9 °F 47.5 °F 30.20 in SSE 3.5 mph 3.5 mph 76 % 0.00 in
10:09 55.1 °F 47.7 °F 30.19 in Calm     76 % 0.00 in
10:14 55.5 °F 47.3 °F 30.20 in SE 1.2 mph 1.2 mph 74 % 0.00 in
10:29 56.9 °F 48.3 °F 30.19 in SSE 3.5 mph 3.5 mph 73 % 0.00 in
10:34 57.1 °F 48.2 °F 30.19 in ENE 2.3 mph 2.3 mph 72 % 0.00 in
10:39 57.5 °F 48.5 °F 30.19 in SE 1.2 mph 1.2 mph 72 % 0.00 in
11:04 58.9 °F 48.4 °F 30.18 in ESE 1.2 mph 1.2 mph 68 % 0.00 in
11:14 59.3 °F 48.3 °F 30.17 in SW 3.5 mph 3.5 mph 67 % 0.00 in
11:15 59.4 °F 48.4 °F 30.17 in SE 3.5 mph 3.5 mph 67 % 0.00 in
11:20 59.5 °F 48.5 °F 30.17 in Calm     67 % 0.00 in
11:25 59.8 °F 48.8 °F 30.17 in SE 2.0 mph 2.0 mph 67 % 0.00 in
11:30 60.1 °F 48.7 °F 30.17 in SSE 2.3 mph 2.3 mph 66 % 0.00 in
11:35 60.3 °F 48.9 °F 30.17 in SSE 2.3 mph 2.3 mph 66 % 0.00 in
11:45 60.6 °F 48.8 °F 30.16 in ENE 3.5 mph 3.5 mph 65 % 0.00 in
12:05 60.4 °F 48.6 °F 30.15 in South 3.5 mph 3.5 mph 65 % 0.00 in
12:10 60.7 °F 48.4 °F 30.15 in ESE 3.0 mph 3.0 mph 64 % 0.00 in
12:15 60.9 °F 48.6 °F 30.15 in Calm     64 % 0.00 in
12:20 61.3 °F 49.0 °F 30.15 in SE 2.3 mph 2.3 mph 64 % 0.00 in
12:25 61.2 °F 48.9 °F 30.15 in SE 2.3 mph 2.3 mph 64 % 0.00 in
12:35 61.4 °F 49.1 °F 30.14 in NW 1.2 mph 1.2 mph 64 % 0.00 in
12:40 61.2 °F 48.5 °F 30.14 in WNW 2.3 mph 2.3 mph 63 % 0.00 in
12:55 61.2 °F 48.9 °F 30.14 in Calm   0.2 mph 64 % 0.00 in
13:00 61.8 °F 49.1 °F 30.13 in West 2.3 mph 2.3 mph 63 % 0.00 in
13:05 61.8 °F 48.2 °F 30.13 in NW 3.5 mph 3.5 mph 61 % 0.00 in
13:10 61.6 °F 48.4 °F 30.13 in West 2.3 mph 2.3 mph 62 % 0.00 in
13:26 61.4 °F 48.3 °F 30.13 in NW 2.3 mph 2.3 mph 62 % 0.00 in
13:31 61.5 °F 48.4 °F 30.12 in ESE 2.3 mph 2.3 mph 62 % 0.00 in
13:36 61.7 °F 49.0 °F 30.12 in NW 3.5 mph 3.5 mph 63 % 0.00 in
13:46 61.3 °F 48.2 °F 30.12 in Calm     62 % 0.00 in
13:51 61.5 °F 47.9 °F 30.12 in NW 1.2 mph   61 % 0.00 in
13:56 61.9 °F 48.3 °F 30.12 in Calm     61 % 0.00 in
14:01 62.0 °F 48.4 °F 30.11 in NNW 2.3 mph 2.3 mph 61 % 0.00 in
14:11 61.8 °F 48.2 °F 30.11 in West 1.2 mph 1.2 mph 61 % 0.00 in
14:16 61.6 °F 48.0 °F 30.11 in West 2.3 mph 2.3 mph 61 % 0.00 in
14:21 61.5 °F 48.4 °F 30.11 in Calm     62 % 0.00 in
14:27 61.7 °F 48.1 °F 30.11 in SE 1.0 mph 1.0 mph 61 % 0.00 in
14:32 61.7 °F 48.1 °F 30.11 in SE 1.2 mph 1.2 mph 61 % 0.00 in
14:37 61.7 °F 47.7 °F 30.11 in Calm     60 % 0.00 in
14:42 61.5 °F 47.9 °F 30.11 in ESE 3.5 mph 3.5 mph 61 % 0.00 in
14:47 61.5 °F 48.4 °F 30.11 in SE 2.3 mph 2.3 mph 62 % 0.00 in
14:52 61.5 °F 47.9 °F 30.11 in Calm     61 % 0.00 in
14:57 61.5 °F 48.4 °F 30.11 in Calm     62 % 0.00 in
15:02 61.5 °F 47.9 °F 30.11 in SE 1.2 mph 1.2 mph 61 % 0.00 in
15:03 61.5 °F 48.4 °F 30.11 in SSE 1.2 mph 1.2 mph 62 % 0.00 in
15:13 61.5 °F 48.4 °F 30.10 in Calm     62 % 0.00 in
15:18 61.5 °F 48.8 °F 30.10 in Calm     63 % 0.00 in
15:23 61.4 °F 48.3 °F 30.11 in Calm     62 % 0.00 in
15:28 61.2 °F 48.5 °F 30.11 in Calm     63 % 0.00 in
15:33 61.1 °F 48.4 °F 30.11 in Calm     63 % 0.00 in
15:43 60.8 °F 48.5 °F 30.11 in Calm     64 % 0.00 in
15:53 60.4 °F 48.6 °F 30.11 in SE 1.2 mph   65 % 0.00 in
15:58 60.1 °F 48.3 °F 30.11 in SE 1.2 mph 1.2 mph 65 % 0.00 in
16:03 59.9 °F 48.1 °F 30.11 in SSE 1.2 mph 1.2 mph 65 % 0.00 in
16:09 59.7 °F 48.7 °F 30.11 in Calm     67 % 0.00 in
16:24 58.6 °F 48.8 °F 30.11 in Calm     70 % 0.00 in
16:34 57.6 °F 48.6 °F 30.10 in Calm     72 % 0.00 in
16:39 57.0 °F 48.4 °F 30.11 in Calm     73 % 0.00 in
16:44 56.5 °F 48.3 °F 30.11 in Calm     74 % 0.00 in
16:49 55.9 °F 48.1 °F 30.11 in Calm     75 % 0.00 in
16:59 54.9 °F 47.8 °F 30.11 in Calm     77 % 0.00 in
17:04 54.4 °F 47.3 °F 30.11 in Calm     77 % 0.00 in
17:09 54.0 °F 47.3 °F 30.12 in Calm     78 % 0.00 in
17:14 53.6 °F 46.9 °F 30.12 in Calm     78 % 0.00 in
17:19 53.3 °F 47.3 °F 30.12 in Calm     80 % 0.00 in
17:24 53.0 °F 47.0 °F 30.12 in Calm     80 % 0.00 in
17:29 52.4 °F 46.7 °F 30.12 in Calm     81 % 0.00 in
17:39 51.9 °F 47.2 °F 30.12 in Calm     84 % 0.00 in
17:49 51.4 °F 46.7 °F 30.12 in Calm     84 % 0.00 in
17:54 51.1 °F 46.7 °F 30.12 in Calm     85 % 0.00 in
17:59 50.8 °F 46.5 °F 30.12 in Calm     85 % 0.00 in
18:09 50.3 °F 46.6 °F 30.12 in Calm     87 % 0.00 in
18:19 50.2 °F 46.5 °F 30.13 in Calm     87 % 0.00 in
18:29 49.7 °F 46.0 °F 30.13 in Calm     87 % 0.00 in
18:40 49.3 °F 45.9 °F 30.14 in Calm     88 % 0.00 in
18:45 49.2 °F 46.1 °F 30.14 in Calm     89 % 0.00 in
18:50 49.0 °F 45.9 °F 30.14 in Calm     89 % 0.00 in
18:55 48.9 °F 45.8 °F 30.14 in Calm     89 % 0.00 in
18:59 48.8 °F 45.7 °F 30.14 in Calm     89 % 0.00 in
19:05 48.8 °F 46.0 °F 30.14 in Calm     90 % 0.00 in
19:10 48.7 °F 45.6 °F 30.14 in Calm     89 % 0.00 in
19:15 48.6 °F 45.5 °F 30.15 in Calm     89 % 0.00 in
19:25 48.3 °F 45.5 °F 30.15 in Calm     90 % 0.00 in
19:30 47.9 °F 44.8 °F 30.15 in Calm     89 % 0.00 in
19:35 47.5 °F 44.1 °F 30.15 in Calm     88 % 0.00 in
19:40 47.2 °F 44.1 °F 30.16 in Calm     89 % 0.00 in
19:45 46.9 °F 43.8 °F 30.16 in Calm     89 % 0.00 in
20:00 46.3 °F 43.5 °F 30.16 in Calm     90 % 0.00 in
20:10 45.8 °F 43.3 °F 30.17 in Calm     91 % 0.00 in
20:15 45.6 °F 43.1 °F 30.17 in Calm     91 % 0.00 in
20:20 45.5 °F 43.0 °F 30.17 in Calm     91 % 0.00 in
20:25 45.4 °F 42.9 °F 30.17 in Calm     91 % 0.00 in
20:30 45.2 °F 42.7 °F 30.17 in Calm     91 % 0.00 in
20:35 45.2 °F 43.0 °F 30.17 in Calm     92 % 0.00 in
20:40 45.2 °F 43.0 °F 30.17 in Calm     92 % 0.00 in
20:45 45.5 °F 43.3 °F 30.17 in Calm     92 % 0.00 in
20:55 45.5 °F 43.0 °F 30.17 in Calm     91 % 0.00 in
21:00 45.3 °F 42.8 °F 30.17 in Calm     91 % 0.00 in
21:05 45.2 °F 42.7 °F 30.17 in Calm     91 % 0.00 in
21:12 45.1 °F 42.9 °F 30.17 in Calm     92 % 0.00 in
21:27 44.9 °F 42.7 °F 30.17 in Calm     92 % 0.00 in
21:32 45.0 °F 43.1 °F 30.17 in Calm     93 % 0.00 in
21:37 45.3 °F 43.7 °F 30.17 in Calm     94 % 0.00 in
21:42 45.5 °F 43.6 °F 30.17 in Calm     93 % 0.00 in
21:47 45.6 °F 43.7 °F 30.17 in Calm     93 % 0.00 in
22:02 45.9 °F 43.4 °F 30.17 in Calm     91 % 0.00 in
22:07 45.9 °F 43.1 °F 30.17 in Calm     90 % 0.00 in
22:12 45.8 °F 43.0 °F 30.17 in Calm     90 % 0.00 in
22:17 45.7 °F 42.9 °F 30.17 in Calm     90 % 0.00 in
22:22 45.8 °F 43.0 °F 30.17 in Calm     90 % 0.00 in
22:27 45.9 °F 43.1 °F 30.17 in Calm     90 % 0.00 in
22:32 46.0 °F 43.2 °F 30.17 in Calm     90 % 0.00 in
22:37 46.0 °F 43.2 °F 30.17 in Calm     90 % 0.00 in
22:42 46.1 °F 43.6 °F 30.17 in Calm     91 % 0.00 in
22:57 46.4 °F 43.9 °F 30.17 in SSW 1.0 mph 1.0 mph 91 % 0.00 in
23:02 45.5 °F 41.9 °F 30.18 in SSE 1.2 mph 1.2 mph 87 % 0.00 in
23:07 44.7 °F 41.4 °F 30.18 in Calm     88 % 0.00 in
23:12 43.8 °F 40.5 °F 30.18 in Calm     88 % 0.00 in
23:22 42.7 °F 40.0 °F 30.18 in Calm     90 % 0.00 in
23:27 42.3 °F 39.9 °F 30.18 in Calm     91 % 0.00 in
23:32 42.0 °F 39.6 °F 30.18 in Calm     91 % 0.00 in
23:37 41.9 °F 39.7 °F 30.18 in Calm     92 % 0.00 in
23:42 41.9 °F 40.0 °F 30.18 in Calm     93 % 0.00 in
23:47 41.9 °F 40.0 °F 30.18 in Calm     93 % 0.00 in
23:52 41.7 °F 39.8 °F 30.18 in Calm     93 % 0.00 in
Park Place, Exeter, Tulare County, California, USA
Compliments of Weather Underground - 2.25 mb